Anatoliy Sidenko — UBPL3 — position and weather

sailwx.info

Track history (hours):
 
Tides and Currents Weather Stations Pressure Air Temp Water Temp Dewpoint Dewpoint Depression Visibility Wind Speed Wind Dir Waves Ship Positions

Anatoliy Sidenko

Last reported at 2017-Dec-01 02:22 UTC. Time now 2017-Dec-13 03:42 UTC.
Position N 45°12' E 036°28'.
Warning: this ship's position is 12 days out of date.

Length 140 m; draft 3.8 m.

Type: Cargo ship. MMSI: 273340850.

Date/timePositionNaut miles runAvg speedWind from/ knotsBaromVisibWave heightAir tempDewpointWater temp
2017-Dec-01 02:22N 45°12' E 036°28'3 8.8
2017-Dec-01 02:00N 45°15' E 036°28'4 8.1
2017-Dec-01 01:31N 45°19' E 036°31'5 9.4
2017-Dec-01 01:01N 45°21' E 036°37'4 8.9
2017-Dec-01 00:30N 45°24' E 036°41'5 9.6
2017-Dec-01 00:00N 45°29' E 036°42'  
2017-Nov-23 18:36N 45°36' E 036°46'1 9.8
2017-Nov-23 18:30N 45°35' E 036°46'5 9.9
2017-Nov-23 18:00N 45°30' E 036°43'5 9.8
2017-Nov-23 17:30N 45°25' E 036°41'5 9.5
2017-Nov-23 17:00N 45°21' E 036°39'5 9.2
2017-Nov-23 16:30N 45°19' E 036°33'4 7.7
2017-Nov-23 16:01N 45°17' E 036°29'5 8.2
2017-Nov-23 15:27N 45°12' E 036°30'1 0.5
2017-Nov-23 13:15N 45°11' E 036°31'1 2.7
2017-Nov-23 12:59N 45°11' E 036°32'  
Track history (hours):
 
Tides and Currents Weather Stations Pressure Air Temp Water Temp Dewpoint Dewpoint Depression Visibility Wind Speed Wind Dir Waves Ship Positions

Anatoliy Sidenko

Last reported at 2017-Dec-01 02:22 UTC. Time now 2017-Dec-13 03:42 UTC.
Position N 45°12' E 036°28'.
Warning: this ship's position is 12 days out of date.

Length 140 m; draft 3.8 m.

Type: Cargo ship. MMSI: 273340850.

Date/timePositionNaut miles runAvg speedWind from/ knotsBaromVisibWave heightAir tempDewpointWater temp
2017-Dec-01 02:22N 45°12' E 036°28'3 8.8
2017-Dec-01 02:00N 45°15' E 036°28'4 8.1
2017-Dec-01 01:31N 45°19' E 036°31'5 9.4
2017-Dec-01 01:01N 45°21' E 036°37'4 8.9
2017-Dec-01 00:30N 45°24' E 036°41'5 9.6
2017-Dec-01 00:00N 45°29' E 036°42'  
2017-Nov-23 18:36N 45°36' E 036°46'1 9.8
2017-Nov-23 18:30N 45°35' E 036°46'5 9.9
2017-Nov-23 18:00N 45°30' E 036°43'5 9.8
2017-Nov-23 17:30N 45°25' E 036°41'5 9.5
2017-Nov-23 17:00N 45°21' E 036°39'5 9.2
2017-Nov-23 16:30N 45°19' E 036°33'4 7.7
2017-Nov-23 16:01N 45°17' E 036°29'5 8.2
2017-Nov-23 15:27N 45°12' E 036°30'1 0.5
2017-Nov-23 13:15N 45°11' E 036°31'1 2.7
2017-Nov-23 12:59N 45°11' E 036°32'  

Dump ship's entire track history